sensor_id;sensor_type;location;lat;lon;timestamp;P1;durP1;ratioP1;P2;durP2;ratioP2
4452;SDS011;2239;48.152;11.584;2023-12-29T00:04:31;2.03;;;1.27;;
4452;SDS011;2239;48.152;11.584;2023-12-29T00:06:57;2.37;;;1.10;;
4452;SDS011;2239;48.152;11.584;2023-12-29T00:09:22;2.03;;;1.10;;
4452;SDS011;2239;48.152;11.584;2023-12-29T00:11:49;1.10;;;0.80;;
4452;SDS011;2239;48.152;11.584;2023-12-29T00:14:15;1.70;;;1.20;;
4452;SDS011;2239;48.152;11.584;2023-12-29T00:16:41;1.20;;;1.00;;
4452;SDS011;2239;48.152;11.584;2023-12-29T00:19:09;1.40;;;0.80;;
4452;SDS011;2239;48.152;11.584;2023-12-29T00:21:35;1.93;;;1.00;;
4452;SDS011;2239;48.152;11.584;2023-12-29T00:24:01;2.40;;;1.20;;
4452;SDS011;2239;48.152;11.584;2023-12-29T00:26:27;2.80;;;1.07;;
4452;SDS011;2239;48.152;11.584;2023-12-29T00:28:53;1.20;;;1.00;;
4452;SDS011;2239;48.152;11.584;2023-12-29T00:31:19;1.17;;;0.90;;
4452;SDS011;2239;48.152;11.584;2023-12-29T00:33:45;1.77;;;1.20;;
4452;SDS011;2239;48.152;11.584;2023-12-29T00:36:17;1.83;;;0.93;;
4452;SDS011;2239;48.152;11.584;2023-12-29T00:38:43;2.53;;;1.00;;
4452;SDS011;2239;48.152;11.584;2023-12-29T00:41:09;1.80;;;0.93;;
4452;SDS011;2239;48.152;11.584;2023-12-29T00:43:35;1.97;;;1.10;;
4452;SDS011;2239;48.152;11.584;2023-12-29T00:46:04;1.57;;;1.03;;
4452;SDS011;2239;48.152;11.584;2023-12-29T00:48:33;1.90;;;1.30;;
4452;SDS011;2239;48.152;11.584;2023-12-29T00:51:00;2.60;;;1.30;;
4452;SDS011;2239;48.152;11.584;2023-12-29T00:53:27;1.00;;;0.90;;
4452;SDS011;2239;48.152;11.584;2023-12-29T00:55:54;4.53;;;1.50;;
4452;SDS011;2239;48.152;11.584;2023-12-29T00:58:19;2.23;;;1.47;;
4452;SDS011;2239;48.152;11.584;2023-12-29T01:00:45;2.63;;;1.50;;
4452;SDS011;2239;48.152;11.584;2023-12-29T01:03:10;1.70;;;1.23;;
4452;SDS011;2239;48.152;11.584;2023-12-29T01:05:36;3.03;;;1.67;;
4452;SDS011;2239;48.152;11.584;2023-12-29T01:08:01;3.23;;;1.60;;
4452;SDS011;2239;48.152;11.584;2023-12-29T01:10:27;3.57;;;1.63;;
4452;SDS011;2239;48.152;11.584;2023-12-29T01:12:52;3.00;;;1.30;;
4452;SDS011;2239;48.152;11.584;2023-12-29T01:15:18;2.73;;;1.60;;
4452;SDS011;2239;48.152;11.584;2023-12-29T01:17:44;2.03;;;1.63;;
4452;SDS011;2239;48.152;11.584;2023-12-29T01:20:09;2.40;;;1.50;;
4452;SDS011;2239;48.152;11.584;2023-12-29T01:22:35;3.43;;;1.47;;
4452;SDS011;2239;48.152;11.584;2023-12-29T01:25:01;3.83;;;1.80;;
4452;SDS011;2239;48.152;11.584;2023-12-29T01:27:27;3.93;;;1.50;;
4452;SDS011;2239;48.152;11.584;2023-12-29T01:29:52;3.53;;;1.67;;
4452;SDS011;2239;48.152;11.584;2023-12-29T01:32:21;2.30;;;1.30;;
4452;SDS011;2239;48.152;11.584;2023-12-29T01:34:47;2.10;;;1.10;;
4452;SDS011;2239;48.152;11.584;2023-12-29T01:37:12;3.80;;;1.67;;
4452;SDS011;2239;48.152;11.584;2023-12-29T01:39:38;2.60;;;1.60;;
4452;SDS011;2239;48.152;11.584;2023-12-29T01:42:05;2.00;;;1.57;;
4452;SDS011;2239;48.152;11.584;2023-12-29T01:44:31;1.97;;;1.47;;
4452;SDS011;2239;48.152;11.584;2023-12-29T01:46:58;3.87;;;1.73;;
4452;SDS011;2239;48.152;11.584;2023-12-29T01:49:25;2.40;;;1.50;;
4452;SDS011;2239;48.152;11.584;2023-12-29T01:51:56;1.50;;;1.33;;
4452;SDS011;2239;48.152;11.584;2023-12-29T01:54:25;2.30;;;1.43;;
4452;SDS011;2239;48.152;11.584;2023-12-29T01:56:54;4.23;;;1.43;;
4452;SDS011;2239;48.152;11.584;2023-12-29T01:59:23;2.83;;;1.70;;
4452;SDS011;2239;48.152;11.584;2023-12-29T02:01:50;4.37;;;1.53;;
4452;SDS011;2239;48.152;11.584;2023-12-29T02:04:16;2.80;;;1.60;;
4452;SDS011;2239;48.152;11.584;2023-12-29T02:06:42;3.03;;;1.20;;
4452;SDS011;2239;48.152;11.584;2023-12-29T02:09:08;1.53;;;1.43;;
4452;SDS011;2239;48.152;11.584;2023-12-29T02:11:34;2.27;;;1.40;;
4452;SDS011;2239;48.152;11.584;2023-12-29T02:14:00;2.80;;;1.40;;
4452;SDS011;2239;48.152;11.584;2023-12-29T02:22:02;3.37;;;1.53;;
4452;SDS011;2239;48.152;11.584;2023-12-29T02:24:28;2.73;;;1.40;;
4452;SDS011;2239;48.152;11.584;2023-12-29T02:26:57;2.87;;;1.40;;
4452;SDS011;2239;48.152;11.584;2023-12-29T02:29:31;1.87;;;1.40;;
4452;SDS011;2239;48.152;11.584;2023-12-29T02:31:59;4.43;;;1.60;;
4452;SDS011;2239;48.152;11.584;2023-12-29T02:34:25;2.70;;;1.30;;
4452;SDS011;2239;48.152;11.584;2023-12-29T02:36:54;1.70;;;1.43;;
4452;SDS011;2239;48.152;11.584;2023-12-29T02:39:21;2.80;;;1.40;;
4452;SDS011;2239;48.152;11.584;2023-12-29T02:41:47;2.97;;;1.77;;
4452;SDS011;2239;48.152;11.584;2023-12-29T02:44:12;1.73;;;1.30;;
4452;SDS011;2239;48.152;11.584;2023-12-29T02:46:38;3.83;;;1.43;;
4452;SDS011;2239;48.152;11.584;2023-12-29T02:49:04;2.50;;;1.57;;
4452;SDS011;2239;48.152;11.584;2023-12-29T02:51:29;3.17;;;1.50;;
4452;SDS011;2239;48.152;11.584;2023-12-29T02:53:55;4.43;;;1.47;;
4452;SDS011;2239;48.152;11.584;2023-12-29T02:56:20;2.80;;;1.50;;
4452;SDS011;2239;48.152;11.584;2023-12-29T02:58:47;2.60;;;1.33;;
4452;SDS011;2239;48.152;11.584;2023-12-29T03:01:16;2.80;;;1.43;;
4452;SDS011;2239;48.152;11.584;2023-12-29T03:03:41;2.77;;;1.17;;
4452;SDS011;2239;48.152;11.584;2023-12-29T03:06:08;3.10;;;1.87;;
4452;SDS011;2239;48.152;11.584;2023-12-29T03:08:34;1.53;;;1.13;;
4452;SDS011;2239;48.152;11.584;2023-12-29T03:10:59;2.27;;;1.30;;
4452;SDS011;2239;48.152;11.584;2023-12-29T03:13:25;4.17;;;1.50;;
4452;SDS011;2239;48.152;11.584;2023-12-29T03:15:50;3.30;;;1.70;;
4452;SDS011;2239;48.152;11.584;2023-12-29T03:18:16;2.30;;;1.20;;
4452;SDS011;2239;48.152;11.584;2023-12-29T03:20:41;1.80;;;1.10;;
4452;SDS011;2239;48.152;11.584;2023-12-29T03:23:07;2.03;;;1.13;;
4452;SDS011;2239;48.152;11.584;2023-12-29T03:25:33;3.10;;;1.40;;
4452;SDS011;2239;48.152;11.584;2023-12-29T03:27:58;3.13;;;1.30;;
4452;SDS011;2239;48.152;11.584;2023-12-29T03:30:25;1.30;;;1.10;;
4452;SDS011;2239;48.152;11.584;2023-12-29T03:32:51;2.23;;;1.30;;
4452;SDS011;2239;48.152;11.584;2023-12-29T03:35:16;1.97;;;1.23;;
4452;SDS011;2239;48.152;11.584;2023-12-29T03:37:42;2.97;;;1.50;;
4452;SDS011;2239;48.152;11.584;2023-12-29T03:40:08;2.53;;;1.40;;
4452;SDS011;2239;48.152;11.584;2023-12-29T03:42:34;1.80;;;1.40;;
4452;SDS011;2239;48.152;11.584;2023-12-29T03:45:00;2.43;;;1.50;;
4452;SDS011;2239;48.152;11.584;2023-12-29T03:47:26;1.43;;;1.00;;
4452;SDS011;2239;48.152;11.584;2023-12-29T03:49:51;2.20;;;1.23;;
4452;SDS011;2239;48.152;11.584;2023-12-29T03:52:17;2.97;;;1.60;;
4452;SDS011;2239;48.152;11.584;2023-12-29T03:54:42;2.30;;;1.30;;
4452;SDS011;2239;48.152;11.584;2023-12-29T03:57:08;2.50;;;1.37;;
4452;SDS011;2239;48.152;11.584;2023-12-29T03:59:36;2.57;;;1.40;;
4452;SDS011;2239;48.152;11.584;2023-12-29T04:02:02;2.27;;;1.50;;
4452;SDS011;2239;48.152;11.584;2023-12-29T04:04:28;2.63;;;1.50;;
4452;SDS011;2239;48.152;11.584;2023-12-29T04:09:42;1.63;;;1.27;;
4452;SDS011;2239;48.152;11.584;2023-12-29T04:12:08;2.70;;;1.40;;
4452;SDS011;2239;48.152;11.584;2023-12-29T04:14:33;2.80;;;1.13;;
4452;SDS011;2239;48.152;11.584;2023-12-29T04:16:59;2.47;;;1.40;;
4452;SDS011;2239;48.152;11.584;2023-12-29T04:19:28;2.00;;;1.50;;
4452;SDS011;2239;48.152;11.584;2023-12-29T04:21:53;2.30;;;1.20;;
4452;SDS011;2239;48.152;11.584;2023-12-29T04:24:19;3.57;;;1.17;;
4452;SDS011;2239;48.152;11.584;2023-12-29T04:26:44;2.30;;;1.33;;
4452;SDS011;2239;48.152;11.584;2023-12-29T04:29:10;5.77;;;1.43;;
4452;SDS011;2239;48.152;11.584;2023-12-29T04:31:35;2.30;;;1.30;;
4452;SDS011;2239;48.152;11.584;2023-12-29T04:34:01;2.57;;;1.40;;
4452;SDS011;2239;48.152;11.584;2023-12-29T04:36:26;2.30;;;1.30;;
4452;SDS011;2239;48.152;11.584;2023-12-29T04:38:52;2.70;;;1.70;;
4452;SDS011;2239;48.152;11.584;2023-12-29T04:41:17;2.50;;;1.37;;
4452;SDS011;2239;48.152;11.584;2023-12-29T04:43:43;2.40;;;1.27;;
4452;SDS011;2239;48.152;11.584;2023-12-29T04:46:09;2.90;;;1.50;;
4452;SDS011;2239;48.152;11.584;2023-12-29T04:48:34;3.60;;;1.23;;
4452;SDS011;2239;48.152;11.584;2023-12-29T04:51:00;2.10;;;1.53;;
4452;SDS011;2239;48.152;11.584;2023-12-29T04:53:26;2.37;;;1.20;;
4452;SDS011;2239;48.152;11.584;2023-12-29T04:55:51;1.43;;;1.13;;
4452;SDS011;2239;48.152;11.584;2023-12-29T04:58:17;2.20;;;1.20;;
4452;SDS011;2239;48.152;11.584;2023-12-29T05:00:42;2.10;;;1.50;;
4452;SDS011;2239;48.152;11.584;2023-12-29T05:03:08;2.87;;;1.20;;
4452;SDS011;2239;48.152;11.584;2023-12-29T05:05:33;2.80;;;1.80;;
4452;SDS011;2239;48.152;11.584;2023-12-29T05:07:59;3.27;;;1.87;;
4452;SDS011;2239;48.152;11.584;2023-12-29T05:10:24;2.47;;;1.53;;
4452;SDS011;2239;48.152;11.584;2023-12-29T05:12:50;1.67;;;1.13;;
4452;SDS011;2239;48.152;11.584;2023-12-29T05:15:15;2.50;;;1.43;;
4452;SDS011;2239;48.152;11.584;2023-12-29T05:17:41;1.90;;;1.20;;
4452;SDS011;2239;48.152;11.584;2023-12-29T05:20:07;1.43;;;1.13;;
4452;SDS011;2239;48.152;11.584;2023-12-29T05:22:33;1.63;;;1.10;;
4452;SDS011;2239;48.152;11.584;2023-12-29T05:24:58;2.40;;;1.30;;
4452;SDS011;2239;48.152;11.584;2023-12-29T05:27:25;4.27;;;1.60;;
4452;SDS011;2239;48.152;11.584;2023-12-29T05:29:51;2.37;;;1.50;;
4452;SDS011;2239;48.152;11.584;2023-12-29T05:32:17;4.20;;;1.40;;
4452;SDS011;2239;48.152;11.584;2023-12-29T05:34:42;1.83;;;1.30;;
4452;SDS011;2239;48.152;11.584;2023-12-29T05:37:08;3.00;;;1.83;;
4452;SDS011;2239;48.152;11.584;2023-12-29T05:39:33;3.43;;;1.50;;
4452;SDS011;2239;48.152;11.584;2023-12-29T05:41:59;2.27;;;1.60;;
4452;SDS011;2239;48.152;11.584;2023-12-29T05:44:24;2.30;;;1.60;;
4452;SDS011;2239;48.152;11.584;2023-12-29T05:46:50;3.20;;;1.67;;
4452;SDS011;2239;48.152;11.584;2023-12-29T05:49:16;3.73;;;1.90;;
4452;SDS011;2239;48.152;11.584;2023-12-29T05:51:42;3.30;;;1.30;;
4452;SDS011;2239;48.152;11.584;2023-12-29T05:54:09;2.30;;;1.57;;
4452;SDS011;2239;48.152;11.584;2023-12-29T05:56:34;2.10;;;1.57;;
4452;SDS011;2239;48.152;11.584;2023-12-29T05:59:00;4.00;;;1.90;;
4452;SDS011;2239;48.152;11.584;2023-12-29T06:01:25;2.30;;;1.50;;
4452;SDS011;2239;48.152;11.584;2023-12-29T06:03:51;3.47;;;1.80;;
4452;SDS011;2239;48.152;11.584;2023-12-29T06:06:16;2.30;;;1.50;;
4452;SDS011;2239;48.152;11.584;2023-12-29T06:08:42;1.93;;;1.57;;
4452;SDS011;2239;48.152;11.584;2023-12-29T06:11:08;3.50;;;1.60;;
4452;SDS011;2239;48.152;11.584;2023-12-29T06:13:33;5.10;;;1.70;;
4452;SDS011;2239;48.152;11.584;2023-12-29T06:15:59;1.60;;;1.40;;
4452;SDS011;2239;48.152;11.584;2023-12-29T06:18:24;2.13;;;1.60;;
4452;SDS011;2239;48.152;11.584;2023-12-29T06:20:50;1.93;;;1.40;;
4452;SDS011;2239;48.152;11.584;2023-12-29T06:23:16;2.23;;;1.50;;
4452;SDS011;2239;48.152;11.584;2023-12-29T06:25:42;2.10;;;1.57;;
4452;SDS011;2239;48.152;11.584;2023-12-29T06:28:09;3.20;;;1.67;;
4452;SDS011;2239;48.152;11.584;2023-12-29T06:30:34;2.97;;;1.70;;
4452;SDS011;2239;48.152;11.584;2023-12-29T06:33:00;2.33;;;1.30;;
4452;SDS011;2239;48.152;11.584;2023-12-29T06:35:25;2.23;;;1.23;;
4452;SDS011;2239;48.152;11.584;2023-12-29T06:37:51;1.60;;;1.50;;
4452;SDS011;2239;48.152;11.584;2023-12-29T06:40:16;3.13;;;1.57;;
4452;SDS011;2239;48.152;11.584;2023-12-29T06:42:42;2.40;;;1.47;;
4452;SDS011;2239;48.152;11.584;2023-12-29T06:45:08;2.90;;;1.70;;
4452;SDS011;2239;48.152;11.584;2023-12-29T06:47:33;2.53;;;1.57;;
4452;SDS011;2239;48.152;11.584;2023-12-29T06:49:59;2.53;;;1.53;;
4452;SDS011;2239;48.152;11.584;2023-12-29T06:52:24;2.10;;;1.40;;
4452;SDS011;2239;48.152;11.584;2023-12-29T06:54:51;1.90;;;1.30;;
4452;SDS011;2239;48.152;11.584;2023-12-29T06:57:17;2.67;;;1.77;;
4452;SDS011;2239;48.152;11.584;2023-12-29T06:59:42;1.30;;;1.10;;
4452;SDS011;2239;48.152;11.584;2023-12-29T07:02:08;2.40;;;1.33;;
4452;SDS011;2239;48.152;11.584;2023-12-29T07:04:33;1.67;;;1.00;;
4452;SDS011;2239;48.152;11.584;2023-12-29T07:07:00;1.13;;;1.03;;
4452;SDS011;2239;48.152;11.584;2023-12-29T07:09:26;2.13;;;1.33;;
4452;SDS011;2239;48.152;11.584;2023-12-29T07:11:52;2.60;;;1.13;;
4452;SDS011;2239;48.152;11.584;2023-12-29T07:14:17;2.40;;;1.63;;
4452;SDS011;2239;48.152;11.584;2023-12-29T07:16:43;1.53;;;1.17;;
4452;SDS011;2239;48.152;11.584;2023-12-29T07:19:09;2.60;;;1.27;;
4452;SDS011;2239;48.152;11.584;2023-12-29T07:21:34;2.50;;;0.97;;
4452;SDS011;2239;48.152;11.584;2023-12-29T07:24:00;3.27;;;1.47;;
4452;SDS011;2239;48.152;11.584;2023-12-29T07:26:25;2.20;;;1.30;;
4452;SDS011;2239;48.152;11.584;2023-12-29T07:28:52;1.67;;;1.10;;
4452;SDS011;2239;48.152;11.584;2023-12-29T07:31:19;2.27;;;1.10;;
4452;SDS011;2239;48.152;11.584;2023-12-29T07:33:46;1.63;;;1.23;;
4452;SDS011;2239;48.152;11.584;2023-12-29T07:36:11;1.87;;;1.13;;
4452;SDS011;2239;48.152;11.584;2023-12-29T07:38:37;3.10;;;1.20;;
4452;SDS011;2239;48.152;11.584;2023-12-29T07:41:03;3.17;;;1.23;;
4452;SDS011;2239;48.152;11.584;2023-12-29T07:43:28;2.70;;;1.30;;
4452;SDS011;2239;48.152;11.584;2023-12-29T07:45:54;4.43;;;1.30;;
4452;SDS011;2239;48.152;11.584;2023-12-29T07:48:19;1.73;;;1.40;;
4452;SDS011;2239;48.152;11.584;2023-12-29T07:50:45;1.57;;;1.00;;
4452;SDS011;2239;48.152;11.584;2023-12-29T07:53:11;3.13;;;1.50;;
4452;SDS011;2239;48.152;11.584;2023-12-29T07:55:39;3.33;;;1.20;;
4452;SDS011;2239;48.152;11.584;2023-12-29T07:58:05;2.67;;;1.40;;
4452;SDS011;2239;48.152;11.584;2023-12-29T08:00:31;1.50;;;1.13;;
4452;SDS011;2239;48.152;11.584;2023-12-29T08:02:56;2.73;;;1.50;;
4452;SDS011;2239;48.152;11.584;2023-12-29T08:05:24;1.63;;;1.20;;
4452;SDS011;2239;48.152;11.584;2023-12-29T08:07:50;2.67;;;1.30;;
4452;SDS011;2239;48.152;11.584;2023-12-29T08:10:15;3.47;;;1.37;;
4452;SDS011;2239;48.152;11.584;2023-12-29T08:12:42;2.13;;;1.50;;
4452;SDS011;2239;48.152;11.584;2023-12-29T08:15:08;2.83;;;1.20;;
4452;SDS011;2239;48.152;11.584;2023-12-29T08:17:33;5.17;;;1.50;;
4452;SDS011;2239;48.152;11.584;2023-12-29T08:19:59;1.70;;;1.10;;
4452;SDS011;2239;48.152;11.584;2023-12-29T08:22:27;3.37;;;1.57;;
4452;SDS011;2239;48.152;11.584;2023-12-29T08:24:54;1.30;;;1.10;;
4452;SDS011;2239;48.152;11.584;2023-12-29T08:27:23;1.57;;;1.30;;
4452;SDS011;2239;48.152;11.584;2023-12-29T08:29:52;1.40;;;1.00;;
4452;SDS011;2239;48.152;11.584;2023-12-29T08:32:18;2.13;;;1.40;;
4452;SDS011;2239;48.152;11.584;2023-12-29T08:34:45;2.87;;;1.40;;
4452;SDS011;2239;48.152;11.584;2023-12-29T08:37:10;1.80;;;1.50;;
4452;SDS011;2239;48.152;11.584;2023-12-29T08:39:36;2.50;;;1.77;;
4452;SDS011;2239;48.152;11.584;2023-12-29T08:42:01;1.77;;;1.17;;
4452;SDS011;2239;48.152;11.584;2023-12-29T08:44:27;3.97;;;1.57;;
4452;SDS011;2239;48.152;11.584;2023-12-29T08:46:52;3.97;;;1.47;;
4452;SDS011;2239;48.152;11.584;2023-12-29T08:49:18;2.07;;;1.17;;
4452;SDS011;2239;48.152;11.584;2023-12-29T08:51:44;3.73;;;1.63;;
4452;SDS011;2239;48.152;11.584;2023-12-29T08:54:09;1.80;;;1.07;;
4452;SDS011;2239;48.152;11.584;2023-12-29T08:56:35;2.87;;;1.67;;
4452;SDS011;2239;48.152;11.584;2023-12-29T08:59:00;3.00;;;1.30;;
4452;SDS011;2239;48.152;11.584;2023-12-29T09:01:26;1.47;;;1.07;;
4452;SDS011;2239;48.152;11.584;2023-12-29T09:03:51;2.47;;;1.20;;
4452;SDS011;2239;48.152;11.584;2023-12-29T09:06:17;2.70;;;1.50;;
4452;SDS011;2239;48.152;11.584;2023-12-29T09:09:09;2.10;;;0.90;;
4452;SDS011;2239;48.152;11.584;2023-12-29T09:11:37;2.80;;;1.27;;
4452;SDS011;2239;48.152;11.584;2023-12-29T09:14:04;1.33;;;1.00;;
4452;SDS011;2239;48.152;11.584;2023-12-29T09:16:30;1.93;;;1.33;;
4452;SDS011;2239;48.152;11.584;2023-12-29T09:18:55;3.80;;;1.27;;
4452;SDS011;2239;48.152;11.584;2023-12-29T09:21:21;1.40;;;1.20;;
4452;SDS011;2239;48.152;11.584;2023-12-29T09:23:47;8.90;;;1.17;;
4452;SDS011;2239;48.152;11.584;2023-12-29T09:26:12;1.50;;;1.10;;
4452;SDS011;2239;48.152;11.584;2023-12-29T09:28:41;2.10;;;1.23;;
4452;SDS011;2239;48.152;11.584;2023-12-29T09:31:09;2.70;;;1.33;;
4452;SDS011;2239;48.152;11.584;2023-12-29T09:33:35;2.73;;;1.30;;
4452;SDS011;2239;48.152;11.584;2023-12-29T09:36:01;1.80;;;1.23;;
4452;SDS011;2239;48.152;11.584;2023-12-29T09:38:27;1.77;;;1.10;;
4452;SDS011;2239;48.152;11.584;2023-12-29T09:40:53;2.93;;;1.47;;
4452;SDS011;2239;48.152;11.584;2023-12-29T09:43:24;2.40;;;1.50;;
4452;SDS011;2239;48.152;11.584;2023-12-29T09:45:50;2.30;;;1.50;;
4452;SDS011;2239;48.152;11.584;2023-12-29T09:48:17;1.60;;;1.23;;
4452;SDS011;2239;48.152;11.584;2023-12-29T09:50:51;3.13;;;1.20;;
4452;SDS011;2239;48.152;11.584;2023-12-29T09:53:17;2.50;;;1.70;;
4452;SDS011;2239;48.152;11.584;2023-12-29T09:55:46;1.40;;;1.10;;
4452;SDS011;2239;48.152;11.584;2023-12-29T09:58:14;1.97;;;0.97;;
4452;SDS011;2239;48.152;11.584;2023-12-29T10:00:40;1.80;;;1.00;;
4452;SDS011;2239;48.152;11.584;2023-12-29T10:03:07;2.03;;;1.17;;
4452;SDS011;2239;48.152;11.584;2023-12-29T10:05:33;0.97;;;0.90;;
4452;SDS011;2239;48.152;11.584;2023-12-29T10:08:00;1.87;;;1.20;;
4452;SDS011;2239;48.152;11.584;2023-12-29T10:10:28;4.53;;;1.30;;
4452;SDS011;2239;48.152;11.584;2023-12-29T10:12:55;2.47;;;1.40;;
4452;SDS011;2239;48.152;11.584;2023-12-29T10:15:34;1.33;;;1.20;;
4452;SDS011;2239;48.152;11.584;2023-12-29T10:18:29;1.70;;;1.07;;
4452;SDS011;2239;48.152;11.584;2023-12-29T10:23:51;2.07;;;1.20;;
4452;SDS011;2239;48.152;11.584;2023-12-29T10:26:20;2.07;;;1.27;;
4452;SDS011;2239;48.152;11.584;2023-12-29T10:28:46;1.27;;;0.90;;
4452;SDS011;2239;48.152;11.584;2023-12-29T10:31:14;0.93;;;0.80;;
4452;SDS011;2239;48.152;11.584;2023-12-29T10:33:41;1.70;;;1.20;;
4452;SDS011;2239;48.152;11.584;2023-12-29T10:36:06;1.53;;;1.00;;
4452;SDS011;2239;48.152;11.584;2023-12-29T10:38:33;1.80;;;1.10;;
4452;SDS011;2239;48.152;11.584;2023-12-29T10:41:33;3.20;;;1.10;;
4452;SDS011;2239;48.152;11.584;2023-12-29T10:43:51;2.03;;;0.90;;
4452;SDS011;2239;48.152;11.584;2023-12-29T10:46:17;1.00;;;0.90;;
4452;SDS011;2239;48.152;11.584;2023-12-29T10:48:43;1.00;;;0.90;;
4452;SDS011;2239;48.152;11.584;2023-12-29T10:51:08;0.90;;;0.80;;
4452;SDS011;2239;48.152;11.584;2023-12-29T10:53:36;1.33;;;1.10;;
4452;SDS011;2239;48.152;11.584;2023-12-29T10:56:04;1.00;;;0.70;;
4452;SDS011;2239;48.152;11.584;2023-12-29T10:58:35;0.97;;;0.80;;
4452;SDS011;2239;48.152;11.584;2023-12-29T11:01:02;1.33;;;0.97;;
4452;SDS011;2239;48.152;11.584;2023-12-29T11:03:40;2.00;;;0.63;;
4452;SDS011;2239;48.152;11.584;2023-12-29T11:06:06;1.43;;;0.90;;
4452;SDS011;2239;48.152;11.584;2023-12-29T11:08:32;1.10;;;0.73;;
4452;SDS011;2239;48.152;11.584;2023-12-29T11:11:00;1.30;;;1.00;;
4452;SDS011;2239;48.152;11.584;2023-12-29T11:13:27;5.40;;;1.00;;
4452;SDS011;2239;48.152;11.584;2023-12-29T11:15:55;1.27;;;0.80;;
4452;SDS011;2239;48.152;11.584;2023-12-29T11:18:21;1.10;;;0.90;;
4452;SDS011;2239;48.152;11.584;2023-12-29T11:20:47;1.47;;;1.00;;
4452;SDS011;2239;48.152;11.584;2023-12-29T11:23:14;1.30;;;1.07;;
4452;SDS011;2239;48.152;11.584;2023-12-29T11:25:39;1.20;;;0.80;;
4452;SDS011;2239;48.152;11.584;2023-12-29T11:28:06;1.93;;;1.00;;
4452;SDS011;2239;48.152;11.584;2023-12-29T11:30:35;2.90;;;1.13;;
4452;SDS011;2239;48.152;11.584;2023-12-29T11:33:18;2.03;;;1.10;;
4452;SDS011;2239;48.152;11.584;2023-12-29T11:35:55;1.07;;;0.90;;
4452;SDS011;2239;48.152;11.584;2023-12-29T11:43:37;1.33;;;1.10;;
4452;SDS011;2239;48.152;11.584;2023-12-29T11:46:03;1.70;;;1.23;;
4452;SDS011;2239;48.152;11.584;2023-12-29T11:54:10;1.57;;;1.03;;
4452;SDS011;2239;48.152;11.584;2023-12-29T11:56:40;1.17;;;0.90;;
4452;SDS011;2239;48.152;11.584;2023-12-29T11:59:11;1.70;;;0.90;;
4452;SDS011;2239;48.152;11.584;2023-12-29T12:01:58;1.93;;;1.07;;
4452;SDS011;2239;48.152;11.584;2023-12-29T12:04:39;1.43;;;0.93;;
4452;SDS011;2239;48.152;11.584;2023-12-29T12:09:46;2.30;;;1.13;;
4452;SDS011;2239;48.152;11.584;2023-12-29T12:12:14;1.90;;;0.97;;
4452;SDS011;2239;48.152;11.584;2023-12-29T12:15:03;1.53;;;0.90;;
4452;SDS011;2239;48.152;11.584;2023-12-29T12:17:50;1.30;;;1.07;;
4452;SDS011;2239;48.152;11.584;2023-12-29T12:20:15;3.00;;;1.07;;
4452;SDS011;2239;48.152;11.584;2023-12-29T12:22:41;1.90;;;1.10;;
4452;SDS011;2239;48.152;11.584;2023-12-29T12:25:11;3.60;;;1.30;;
4452;SDS011;2239;48.152;11.584;2023-12-29T12:27:37;1.00;;;0.90;;
4452;SDS011;2239;48.152;11.584;2023-12-29T12:30:05;1.50;;;1.00;;
4452;SDS011;2239;48.152;11.584;2023-12-29T12:32:31;2.40;;;1.00;;
4452;SDS011;2239;48.152;11.584;2023-12-29T12:34:57;1.57;;;1.13;;
4452;SDS011;2239;48.152;11.584;2023-12-29T12:37:24;1.30;;;0.90;;
4452;SDS011;2239;48.152;11.584;2023-12-29T12:39:53;1.20;;;1.07;;
4452;SDS011;2239;48.152;11.584;2023-12-29T12:42:20;1.10;;;0.80;;
4452;SDS011;2239;48.152;11.584;2023-12-29T12:44:47;1.77;;;1.00;;
4452;SDS011;2239;48.152;11.584;2023-12-29T12:47:25;3.53;;;1.30;;
4452;SDS011;2239;48.152;11.584;2023-12-29T12:49:58;0.70;;;0.63;;
4452;SDS011;2239;48.152;11.584;2023-12-29T12:52:24;1.43;;;0.93;;
4452;SDS011;2239;48.152;11.584;2023-12-29T12:54:50;1.50;;;0.90;;
4452;SDS011;2239;48.152;11.584;2023-12-29T12:57:20;0.97;;;0.80;;
4452;SDS011;2239;48.152;11.584;2023-12-29T12:59:46;1.90;;;0.83;;
4452;SDS011;2239;48.152;11.584;2023-12-29T13:02:13;1.30;;;0.97;;
4452;SDS011;2239;48.152;11.584;2023-12-29T13:04:40;1.30;;;1.07;;
4452;SDS011;2239;48.152;11.584;2023-12-29T13:07:07;2.13;;;0.90;;
4452;SDS011;2239;48.152;11.584;2023-12-29T13:09:34;1.67;;;1.00;;
4452;SDS011;2239;48.152;11.584;2023-12-29T13:12:08;1.47;;;0.97;;
4452;SDS011;2239;48.152;11.584;2023-12-29T13:14:34;1.20;;;0.80;;
4452;SDS011;2239;48.152;11.584;2023-12-29T13:17:04;1.20;;;0.90;;
4452;SDS011;2239;48.152;11.584;2023-12-29T13:19:40;2.80;;;1.07;;
4452;SDS011;2239;48.152;11.584;2023-12-29T13:22:10;0.97;;;0.90;;
4452;SDS011;2239;48.152;11.584;2023-12-29T13:24:45;6.00;;;0.87;;
4452;SDS011;2239;48.152;11.584;2023-12-29T13:27:11;1.10;;;0.80;;
4452;SDS011;2239;48.152;11.584;2023-12-29T13:29:38;1.27;;;0.90;;
4452;SDS011;2239;48.152;11.584;2023-12-29T13:32:12;1.53;;;0.80;;
4452;SDS011;2239;48.152;11.584;2023-12-29T13:35:03;1.53;;;0.90;;
4452;SDS011;2239;48.152;11.584;2023-12-29T13:37:37;1.60;;;1.00;;
4452;SDS011;2239;48.152;11.584;2023-12-29T13:40:24;1.70;;;0.90;;
4452;SDS011;2239;48.152;11.584;2023-12-29T13:42:57;1.10;;;0.90;;
4452;SDS011;2239;48.152;11.584;2023-12-29T13:45:26;1.73;;;0.90;;
4452;SDS011;2239;48.152;11.584;2023-12-29T13:47:52;2.40;;;0.90;;
4452;SDS011;2239;48.152;11.584;2023-12-29T13:50:20;1.73;;;0.90;;
4452;SDS011;2239;48.152;11.584;2023-12-29T13:52:46;1.23;;;0.87;;
4452;SDS011;2239;48.152;11.584;2023-12-29T13:55:12;0.80;;;0.63;;
4452;SDS011;2239;48.152;11.584;2023-12-29T13:57:49;1.63;;;0.80;;
4452;SDS011;2239;48.152;11.584;2023-12-29T14:00:18;0.97;;;0.80;;
4452;SDS011;2239;48.152;11.584;2023-12-29T14:02:48;2.77;;;1.10;;
4452;SDS011;2239;48.152;11.584;2023-12-29T14:05:23;1.67;;;0.90;;
4452;SDS011;2239;48.152;11.584;2023-12-29T14:07:53;0.80;;;0.80;;
4452;SDS011;2239;48.152;11.584;2023-12-29T14:10:23;1.30;;;0.80;;
4452;SDS011;2239;48.152;11.584;2023-12-29T14:12:53;2.47;;;0.87;;
4452;SDS011;2239;48.152;11.584;2023-12-29T14:15:18;1.17;;;0.80;;
4452;SDS011;2239;48.152;11.584;2023-12-29T14:17:44;1.63;;;0.80;;
4452;SDS011;2239;48.152;11.584;2023-12-29T14:20:09;1.83;;;0.67;;
4452;SDS011;2239;48.152;11.584;2023-12-29T14:22:35;2.43;;;0.70;;
4452;SDS011;2239;48.152;11.584;2023-12-29T14:25:04;1.13;;;0.80;;
4452;SDS011;2239;48.152;11.584;2023-12-29T14:27:30;1.17;;;0.80;;
4452;SDS011;2239;48.152;11.584;2023-12-29T14:29:56;1.00;;;0.90;;
4452;SDS011;2239;48.152;11.584;2023-12-29T14:32:23;1.00;;;0.77;;
4452;SDS011;2239;48.152;11.584;2023-12-29T14:34:49;1.13;;;0.60;;
4452;SDS011;2239;48.152;11.584;2023-12-29T14:37:21;1.03;;;0.83;;
4452;SDS011;2239;48.152;11.584;2023-12-29T14:39:49;1.20;;;1.00;;
4452;SDS011;2239;48.152;11.584;2023-12-29T14:42:15;1.70;;;0.90;;
4452;SDS011;2239;48.152;11.584;2023-12-29T14:44:41;1.10;;;0.97;;
4452;SDS011;2239;48.152;11.584;2023-12-29T14:47:07;1.17;;;0.73;;
4452;SDS011;2239;48.152;11.584;2023-12-29T14:49:32;1.93;;;0.87;;
4452;SDS011;2239;48.152;11.584;2023-12-29T14:51:58;1.63;;;1.00;;
4452;SDS011;2239;48.152;11.584;2023-12-29T14:54:24;1.03;;;0.77;;
4452;SDS011;2239;48.152;11.584;2023-12-29T14:56:49;1.13;;;0.97;;
4452;SDS011;2239;48.152;11.584;2023-12-29T14:59:15;1.30;;;0.80;;
4452;SDS011;2239;48.152;11.584;2023-12-29T15:01:41;8.80;;;1.00;;
4452;SDS011;2239;48.152;11.584;2023-12-29T15:04:06;0.70;;;0.70;;
4452;SDS011;2239;48.152;11.584;2023-12-29T15:06:32;1.30;;;0.80;;
4452;SDS011;2239;48.152;11.584;2023-12-29T15:08:57;1.23;;;1.00;;
4452;SDS011;2239;48.152;11.584;2023-12-29T15:11:23;1.37;;;0.90;;
4452;SDS011;2239;48.152;11.584;2023-12-29T15:13:48;1.83;;;1.00;;
4452;SDS011;2239;48.152;11.584;2023-12-29T15:16:14;1.40;;;1.07;;
4452;SDS011;2239;48.152;11.584;2023-12-29T15:18:39;1.50;;;1.00;;
4452;SDS011;2239;48.152;11.584;2023-12-29T15:21:05;0.80;;;0.77;;
4452;SDS011;2239;48.152;11.584;2023-12-29T15:23:31;1.07;;;0.97;;
4452;SDS011;2239;48.152;11.584;2023-12-29T15:25:57;2.30;;;0.90;;
4452;SDS011;2239;48.152;11.584;2023-12-29T15:28:22;4.00;;;0.90;;